長崎空港の過去48時間の天気

長崎空港 (Nagasaki)

現在時刻: 10/20 18:44 JST (10/20 09:44 UTC) 以下の時間は現地時間です。

過去48時間のMETAR気象情報
時間 風向 風速(m/s) 視程 気温(℃) 湿度(%) 気圧(hPa) 天気現象
20 18:00 8 10km以上 18 64 1020
20 17:00 7 10km以上 19 60 1021
20 16:00 6 10km以上 21 49 1020
20 15:00 7 10km以上 22 41 1020
20 14:00 6 10km以上 23 44 1020
20 13:00 6 10km以上 22 43 1021
20 12:00 5 10km以上 22 46 1022
20 11:00 北北東 6 10km以上 20 53 1023
20 10:00 北北東 8 10km以上 20 49 1023
20 09:00 8 10km以上 19 56 1023
20 08:00 5 10km以上 17 63 1023
20 07:00 北北東 5 10km以上 16 72 1022
20 06:10 6 10km以上 16 72 1022
19 21:00 3 10km以上 17 77 1021
19 20:00 6 10km以上 17 77 1021
19 19:00 7 10km以上 18 73 1020
19 18:00 9 10km以上 18 73 1019
19 17:00 9 10km以上 19 68 1019
19 16:00 11 10km以上 20 64 1019
19 15:41 9 10km以上 21 60 1019
19 15:00 9 10km以上 20 64 1019
19 14:00 6 10km以上 18 83 1019 周辺でしゅう雨
19 13:00 4 10km以上 18 83 1019 周辺でしゅう雨
19 12:00 北北西 6 10km以上 20 60 1020 弱いしゅう雨
19 11:00 5 10km以上 21 53 1020
19 10:00 5 10km以上 20 56 1020
19 09:00 4 10km以上 19 60 1020
19 08:00 北北東 4 10km以上 17 63 1020
19 07:00 北北東 3 10km以上 15 72 1019
19 06:10 北東 4 10km以上 15 72 1019
18 21:00 北西 5 10km以上 17 72 1017
18 20:00 西北西 5 10km以上 18 73 1017
18 19:00 西北西 4 10km以上 18 68 1016
RJFU 200900Z 01016KT 9999 FEW035 BKN/// 18/11 Q1020
RJFU 200800Z 35014KT 9999 FEW040 BKN/// 19/11 Q1021
RJFU 200700Z 35011KT 9999 FEW050 BKN/// 21/10 Q1020
RJFU 200600Z 36013KT 9999 FEW050 SCT/// 22/08 Q1020
RJFU 200500Z 35012KT 9999 FEW050 23/10 Q1020
RJFU 200400Z 35011KT 9999 FEW050 22/09 Q1021
RJFU 200300Z 36010KT 9999 FEW040 22/10 Q1022
RJFU 200200Z 02012KT 9999 FEW040 20/10 Q1023
RJFU 200100Z 02016KT 9999 FEW035 20/09 Q1023
RJFU 200000Z 01015KT 9999 FEW030 19/10 Q1023
RJFU 192300Z 01010KT 9999 FEW030 17/10 Q1023
RJFU 192200Z 02009KT 350V060 9999 FEW030 16/11 Q1022
RJFU 192110Z 36011KT 9999 FEW030 16/11 Q1022 RMK 1CU030 A3020
RJFU 191200Z 01006KT 9999 FEW025 SCT060 BKN080 17/13 Q1021
RJFU 191100Z 35011KT 9999 FEW025 BKN080 17/13 Q1021
RJFU 191000Z 36014KT 9999 FEW030 BKN/// 18/13 Q1020
RJFU 190900Z 01017KT 9999 FEW030 BKN/// 18/13 Q1019
RJFU 190800Z 36018KT 9999 FEW030 BKN/// 19/13 Q1019
RJFU 190700Z 36022KT 9999 FEW025 SCT035 BKN/// 20/13 Q1019
RJFU 190641Z 35018G28KT 9999 FEW025 SCT035 BKN/// 21/13 Q1019 RMK 1CU025 4CU035 A3009
RJFU 190600Z 36017KT 9999 FEW030 SCT040 BKN/// 20/13 Q1019
RJFU 190500Z 01012KT 9999 VCSH FEW025 SCT035 BKN070 18/15 Q1019
RJFU 190400Z 36008KT 9999 VCSH FEW025 BKN035 18/15 Q1019
RJFU 190300Z 34011KT 9999 -SHRA FEW030 SCT035 BKN050 20/12 Q1020
RJFU 190200Z 35009KT 9999 FEW035 BKN050 21/11 Q1020
RJFU 190100Z 36010KT 9999 FEW035 20/11 Q1020
RJFU 190000Z 35007KT 260V070 9999 FEW035 19/11 Q1020
RJFU 182300Z 02007KT 9999 FEW035 17/10 Q1020
RJFU 182200Z 03006KT 9999 FEW035 15/10 Q1019
RJFU 182110Z 04007KT 9999 FEW035 15/10 Q1019 RMK 1CU035 A3009
RJFU 181200Z 31009KT 9999 FEW030 SCT150 17/12 Q1017
RJFU 181100Z 30009KT 9999 FEW030 SCT150 18/13 Q1017
RJFU 181000Z 30007KT 9999 FEW030 18/12 Q1016